sensor_id;sensor_type;location;lat;lon;timestamp;temperature;humidity
66522;SHT31;53349;53.538;8.584;2022-07-25T00:02:19;22.36;67.52
66522;SHT31;53349;53.538;8.584;2022-07-25T00:04:44;22.35;67.28
66522;SHT31;53349;53.538;8.584;2022-07-25T00:07:10;22.36;67.20
66522;SHT31;53349;53.538;8.584;2022-07-25T00:09:35;22.40;67.08
66522;SHT31;53349;53.538;8.584;2022-07-25T00:12:01;22.37;66.93
66522;SHT31;53349;53.538;8.584;2022-07-25T00:14:26;22.35;67.00
66522;SHT31;53349;53.538;8.584;2022-07-25T00:16:52;22.35;66.83
66522;SHT31;53349;53.538;8.584;2022-07-25T00:19:18;22.35;66.84
66522;SHT31;53349;53.538;8.584;2022-07-25T00:21:43;22.33;66.63
66522;SHT31;53349;53.538;8.584;2022-07-25T00:24:09;22.36;66.46
66522;SHT31;53349;53.538;8.584;2022-07-25T00:26:34;22.39;66.35
66522;SHT31;53349;53.538;8.584;2022-07-25T00:29:00;22.36;66.28
66522;SHT31;53349;53.538;8.584;2022-07-25T00:31:25;22.36;66.15
66522;SHT31;53349;53.538;8.584;2022-07-25T00:33:51;22.37;65.91
66522;SHT31;53349;53.538;8.584;2022-07-25T00:36:16;22.37;65.72
66522;SHT31;53349;53.538;8.584;2022-07-25T00:38:42;22.39;65.52
66522;SHT31;53349;53.538;8.584;2022-07-25T00:41:07;22.39;65.22
66522;SHT31;53349;53.538;8.584;2022-07-25T00:43:33;22.42;65.17
66522;SHT31;53349;53.538;8.584;2022-07-25T00:45:58;22.42;65.04
66522;SHT31;53349;53.538;8.584;2022-07-25T00:48:27;22.37;65.03
66522;SHT31;53349;53.538;8.584;2022-07-25T00:50:54;22.40;64.93
66522;SHT31;53349;53.538;8.584;2022-07-25T00:53:20;22.40;64.89
66522;SHT31;53349;53.538;8.584;2022-07-25T00:55:45;22.39;64.70
66522;SHT31;53349;53.538;8.584;2022-07-25T00:58:12;22.40;64.71
66522;SHT31;53349;53.538;8.584;2022-07-25T01:00:37;22.39;64.45
66522;SHT31;53349;53.538;8.584;2022-07-25T01:03:03;22.37;64.43
66522;SHT31;53349;53.538;8.584;2022-07-25T01:05:28;22.40;64.35
66522;SHT31;53349;53.538;8.584;2022-07-25T01:07:54;22.40;64.23
66522;SHT31;53349;53.538;8.584;2022-07-25T01:10:19;22.39;64.28
66522;SHT31;53349;53.538;8.584;2022-07-25T01:12:52;22.37;64.08
66522;SHT31;53349;53.538;8.584;2022-07-25T01:15:19;22.40;63.92
66522;SHT31;53349;53.538;8.584;2022-07-25T01:17:45;22.40;63.77
66522;SHT31;53349;53.538;8.584;2022-07-25T01:20:18;22.43;63.56
66522;SHT31;53349;53.538;8.584;2022-07-25T01:22:44;22.42;63.42
66522;SHT31;53349;53.538;8.584;2022-07-25T01:25:10;22.42;63.42
66522;SHT31;53349;53.538;8.584;2022-07-25T01:27:36;22.43;63.20
66522;SHT31;53349;53.538;8.584;2022-07-25T01:30:04;22.42;63.18
66522;SHT31;53349;53.538;8.584;2022-07-25T01:32:31;22.42;63.15
66522;SHT31;53349;53.538;8.584;2022-07-25T01:34:56;22.43;63.12
66522;SHT31;53349;53.538;8.584;2022-07-25T01:37:22;22.43;63.05
66522;SHT31;53349;53.538;8.584;2022-07-25T01:39:47;22.42;62.94
66522;SHT31;53349;53.538;8.584;2022-07-25T01:42:12;22.42;62.84
66522;SHT31;53349;53.538;8.584;2022-07-25T01:44:38;22.39;62.68
66522;SHT31;53349;53.538;8.584;2022-07-25T01:47:04;22.39;62.66
66522;SHT31;53349;53.538;8.584;2022-07-25T01:49:29;22.36;62.73
66522;SHT31;53349;53.538;8.584;2022-07-25T01:51:54;22.35;62.75
66522;SHT31;53349;53.538;8.584;2022-07-25T01:54:20;22.33;62.65
66522;SHT31;53349;53.538;8.584;2022-07-25T01:56:45;22.33;62.64
66522;SHT31;53349;53.538;8.584;2022-07-25T01:59:11;22.30;62.78
66522;SHT31;53349;53.538;8.584;2022-07-25T02:01:36;22.30;62.86
66522;SHT31;53349;53.538;8.584;2022-07-25T02:04:02;22.28;62.85
66522;SHT31;53349;53.538;8.584;2022-07-25T02:06:28;22.25;62.79
66522;SHT31;53349;53.538;8.584;2022-07-25T02:08:53;22.22;62.81
66522;SHT31;53349;53.538;8.584;2022-07-25T02:11:19;22.19;62.87
66522;SHT31;53349;53.538;8.584;2022-07-25T02:13:44;22.20;62.71
66522;SHT31;53349;53.538;8.584;2022-07-25T02:16:10;22.19;62.85
66522;SHT31;53349;53.538;8.584;2022-07-25T02:18:36;22.19;62.72
66522;SHT31;53349;53.538;8.584;2022-07-25T02:21:02;22.16;62.74
66522;SHT31;53349;53.538;8.584;2022-07-25T02:23:32;22.13;62.79
66522;SHT31;53349;53.538;8.584;2022-07-25T02:25:58;22.09;62.87
66522;SHT31;53349;53.538;8.584;2022-07-25T02:28:23;22.09;63.01
66522;SHT31;53349;53.538;8.584;2022-07-25T02:30:49;22.08;62.98
66522;SHT31;53349;53.538;8.584;2022-07-25T02:33:14;22.06;63.01
66522;SHT31;53349;53.538;8.584;2022-07-25T02:35:40;22.04;63.06
66522;SHT31;53349;53.538;8.584;2022-07-25T02:38:06;22.02;62.99
66522;SHT31;53349;53.538;8.584;2022-07-25T02:40:31;22.01;62.97
66522;SHT31;53349;53.538;8.584;2022-07-25T02:42:57;22.01;62.96
66522;SHT31;53349;53.538;8.584;2022-07-25T02:45:22;21.99;62.84
66522;SHT31;53349;53.538;8.584;2022-07-25T02:47:48;22.01;62.71
66522;SHT31;53349;53.538;8.584;2022-07-25T02:50:13;22.01;62.68
66522;SHT31;53349;53.538;8.584;2022-07-25T02:52:39;21.97;62.59
66522;SHT31;53349;53.538;8.584;2022-07-25T02:55:05;21.98;62.60
66522;SHT31;53349;53.538;8.584;2022-07-25T02:57:30;21.99;62.53
66522;SHT31;53349;53.538;8.584;2022-07-25T02:59:56;21.94;62.55
66522;SHT31;53349;53.538;8.584;2022-07-25T03:02:21;21.95;62.43
66522;SHT31;53349;53.538;8.584;2022-07-25T03:04:48;21.95;62.41
66522;SHT31;53349;53.538;8.584;2022-07-25T03:07:13;21.97;62.34
66522;SHT31;53349;53.538;8.584;2022-07-25T03:09:39;21.95;62.22
66522;SHT31;53349;53.538;8.584;2022-07-25T03:12:04;21.94;62.24
66522;SHT31;53349;53.538;8.584;2022-07-25T03:14:30;21.91;62.15
66522;SHT31;53349;53.538;8.584;2022-07-25T03:16:55;21.92;61.96
66522;SHT31;53349;53.538;8.584;2022-07-25T03:19:21;21.95;61.85
66522;SHT31;53349;53.538;8.584;2022-07-25T03:21:46;21.97;61.71
66522;SHT31;53349;53.538;8.584;2022-07-25T03:24:12;21.97;61.56
66522;SHT31;53349;53.538;8.584;2022-07-25T03:26:37;21.94;61.53
66522;SHT31;53349;53.538;8.584;2022-07-25T03:29:03;21.95;61.34
66522;SHT31;53349;53.538;8.584;2022-07-25T03:31:29;21.94;61.19
66522;SHT31;53349;53.538;8.584;2022-07-25T03:33:54;21.91;61.18
66522;SHT31;53349;53.538;8.584;2022-07-25T03:36:20;21.92;61.17
66522;SHT31;53349;53.538;8.584;2022-07-25T03:38:45;21.89;61.18
66522;SHT31;53349;53.538;8.584;2022-07-25T03:41:11;21.89;61.08
66522;SHT31;53349;53.538;8.584;2022-07-25T03:43:37;21.91;60.94
66522;SHT31;53349;53.538;8.584;2022-07-25T03:46:02;21.91;60.95
66522;SHT31;53349;53.538;8.584;2022-07-25T03:48:28;21.89;60.98
66522;SHT31;53349;53.538;8.584;2022-07-25T03:50:55;21.88;61.00
66522;SHT31;53349;53.538;8.584;2022-07-25T03:53:20;21.87;61.07
66522;SHT31;53349;53.538;8.584;2022-07-25T03:55:46;21.81;61.14
66522;SHT31;53349;53.538;8.584;2022-07-25T03:58:11;21.82;61.13
66522;SHT31;53349;53.538;8.584;2022-07-25T04:00:37;21.81;61.18
66522;SHT31;53349;53.538;8.584;2022-07-25T04:03:02;21.79;61.10
66522;SHT31;53349;53.538;8.584;2022-07-25T04:05:28;21.82;61.14
66522;SHT31;53349;53.538;8.584;2022-07-25T04:07:54;21.82;61.11
66522;SHT31;53349;53.538;8.584;2022-07-25T04:10:20;21.84;61.02
66522;SHT31;53349;53.538;8.584;2022-07-25T04:12:45;21.82;61.14
66522;SHT31;53349;53.538;8.584;2022-07-25T04:15:11;21.81;61.22
66522;SHT31;53349;53.538;8.584;2022-07-25T04:17:37;21.79;61.26
66522;SHT31;53349;53.538;8.584;2022-07-25T04:20:04;21.81;61.30
66522;SHT31;53349;53.538;8.584;2022-07-25T04:22:30;21.81;61.26
66522;SHT31;53349;53.538;8.584;2022-07-25T04:24:55;21.85;61.27
66522;SHT31;53349;53.538;8.584;2022-07-25T04:27:21;21.85;61.28
66522;SHT31;53349;53.538;8.584;2022-07-25T04:29:46;21.85;61.25
66522;SHT31;53349;53.538;8.584;2022-07-25T04:32:12;21.91;61.10
66522;SHT31;53349;53.538;8.584;2022-07-25T04:34:39;21.85;61.15
66522;SHT31;53349;53.538;8.584;2022-07-25T04:37:04;21.88;61.35
66522;SHT31;53349;53.538;8.584;2022-07-25T04:39:29;21.84;61.35
66522;SHT31;53349;53.538;8.584;2022-07-25T04:41:55;21.82;61.47
66522;SHT31;53349;53.538;8.584;2022-07-25T04:44:20;21.87;61.39
66522;SHT31;53349;53.538;8.584;2022-07-25T04:46:46;21.85;61.36
66522;SHT31;53349;53.538;8.584;2022-07-25T04:49:11;21.81;61.35
66522;SHT31;53349;53.538;8.584;2022-07-25T04:51:37;21.85;61.50
66522;SHT31;53349;53.538;8.584;2022-07-25T04:54:02;21.87;61.46
66522;SHT31;53349;53.538;8.584;2022-07-25T04:56:28;21.92;61.27
66522;SHT31;53349;53.538;8.584;2022-07-25T04:58:54;21.99;61.12
66522;SHT31;53349;53.538;8.584;2022-07-25T05:01:19;22.02;61.19
66522;SHT31;53349;53.538;8.584;2022-07-25T05:03:45;21.97;61.27
66522;SHT31;53349;53.538;8.584;2022-07-25T05:06:10;21.99;61.31
66522;SHT31;53349;53.538;8.584;2022-07-25T05:08:36;22.12;60.93
66522;SHT31;53349;53.538;8.584;2022-07-25T05:11:01;22.13;60.95
66522;SHT31;53349;53.538;8.584;2022-07-25T05:13:27;22.15;60.84
66522;SHT31;53349;53.538;8.584;2022-07-25T05:15:52;22.13;60.82
66522;SHT31;53349;53.538;8.584;2022-07-25T05:18:18;22.18;60.80
66522;SHT31;53349;53.538;8.584;2022-07-25T05:20:43;22.20;60.89
66522;SHT31;53349;53.538;8.584;2022-07-25T05:23:09;22.32;60.65
66522;SHT31;53349;53.538;8.584;2022-07-25T05:25:34;22.49;60.26
66522;SHT31;53349;53.538;8.584;2022-07-25T05:28:00;22.74;59.55
66522;SHT31;53349;53.538;8.584;2022-07-25T05:30:27;22.73;59.40
66522;SHT31;53349;53.538;8.584;2022-07-25T05:32:52;22.70;59.51
66522;SHT31;53349;53.538;8.584;2022-07-25T05:35:18;22.97;58.74
66522;SHT31;53349;53.538;8.584;2022-07-25T05:37:43;23.17;58.17
66522;SHT31;53349;53.538;8.584;2022-07-25T05:40:09;23.22;58.06
66522;SHT31;53349;53.538;8.584;2022-07-25T05:42:34;23.19;58.23
66522;SHT31;53349;53.538;8.584;2022-07-25T05:45:00;23.32;57.99
66522;SHT31;53349;53.538;8.584;2022-07-25T05:47:25;23.52;57.49
66522;SHT31;53349;53.538;8.584;2022-07-25T05:49:53;23.55;57.42
66522;SHT31;53349;53.538;8.584;2022-07-25T05:52:18;23.47;57.82
66522;SHT31;53349;53.538;8.584;2022-07-25T05:54:44;23.51;57.80
66522;SHT31;53349;53.538;8.584;2022-07-25T05:57:09;23.41;57.86
66522;SHT31;53349;53.538;8.584;2022-07-25T05:59:34;23.39;57.78
66522;SHT31;53349;53.538;8.584;2022-07-25T06:02:00;23.42;57.81
66522;SHT31;53349;53.538;8.584;2022-07-25T06:04:26;23.48;57.71
66522;SHT31;53349;53.538;8.584;2022-07-25T06:06:52;23.78;56.98
66522;SHT31;53349;53.538;8.584;2022-07-25T06:09:19;23.78;57.06
66522;SHT31;53349;53.538;8.584;2022-07-25T06:11:46;23.95;56.39
66522;SHT31;53349;53.538;8.584;2022-07-25T06:14:12;23.89;56.53
66522;SHT31;53349;53.538;8.584;2022-07-25T06:16:38;24.02;56.42
66522;SHT31;53349;53.538;8.584;2022-07-25T06:19:03;24.03;56.18
66522;SHT31;53349;53.538;8.584;2022-07-25T06:21:29;23.99;56.13
66522;SHT31;53349;53.538;8.584;2022-07-25T06:23:54;23.95;56.38
66522;SHT31;53349;53.538;8.584;2022-07-25T06:26:20;23.97;56.28
66522;SHT31;53349;53.538;8.584;2022-07-25T06:28:46;24.17;55.67
66522;SHT31;53349;53.538;8.584;2022-07-25T06:31:11;24.18;55.58
66522;SHT31;53349;53.538;8.584;2022-07-25T06:33:37;24.17;55.46
66522;SHT31;53349;53.538;8.584;2022-07-25T06:36:05;24.33;55.24
66522;SHT31;53349;53.538;8.584;2022-07-25T06:38:30;24.48;55.02
66522;SHT31;53349;53.538;8.584;2022-07-25T06:40:56;24.96;53.46
66522;SHT31;53349;53.538;8.584;2022-07-25T06:43:21;25.54;52.38
66522;SHT31;53349;53.538;8.584;2022-07-25T06:45:47;26.09;50.56
66522;SHT31;53349;53.538;8.584;2022-07-25T06:48:14;26.25;50.28
66522;SHT31;53349;53.538;8.584;2022-07-25T06:50:41;26.11;50.41
66522;SHT31;53349;53.538;8.584;2022-07-25T06:53:06;25.90;50.93
66522;SHT31;53349;53.538;8.584;2022-07-25T06:55:32;25.76;50.83
66522;SHT31;53349;53.538;8.584;2022-07-25T06:57:57;25.83;51.07
66522;SHT31;53349;53.538;8.584;2022-07-25T07:00:23;25.94;50.92
66522;SHT31;53349;53.538;8.584;2022-07-25T07:03:01;26.46;50.09
66522;SHT31;53349;53.538;8.584;2022-07-25T07:05:30;27.18;48.32
66522;SHT31;53349;53.538;8.584;2022-07-25T07:07:56;27.43;47.72
66522;SHT31;53349;53.538;8.584;2022-07-25T07:10:23;27.14;48.43
66522;SHT31;53349;53.538;8.584;2022-07-25T07:12:49;26.72;49.33
66522;SHT31;53349;53.538;8.584;2022-07-25T07:15:15;26.59;49.76
66522;SHT31;53349;53.538;8.584;2022-07-25T07:17:42;26.45;50.20
66522;SHT31;53349;53.538;8.584;2022-07-25T07:20:08;26.48;50.51
66522;SHT31;53349;53.538;8.584;2022-07-25T07:22:47;26.75;50.43
66522;SHT31;53349;53.538;8.584;2022-07-25T07:25:14;26.60;50.74
66522;SHT31;53349;53.538;8.584;2022-07-25T07:27:40;26.66;51.12
66522;SHT31;53349;53.538;8.584;2022-07-25T07:30:06;26.80;50.71
66522;SHT31;53349;53.538;8.584;2022-07-25T07:32:32;26.71;51.00
66522;SHT31;53349;53.538;8.584;2022-07-25T07:34:57;26.62;51.33
66522;SHT31;53349;53.538;8.584;2022-07-25T07:37:23;26.51;51.36
66522;SHT31;53349;53.538;8.584;2022-07-25T07:39:51;26.52;51.58
66522;SHT31;53349;53.538;8.584;2022-07-25T07:42:17;26.69;51.49
66522;SHT31;53349;53.538;8.584;2022-07-25T07:44:42;26.69;51.47
66522;SHT31;53349;53.538;8.584;2022-07-25T07:47:08;26.72;51.38
66522;SHT31;53349;53.538;8.584;2022-07-25T07:49:33;26.86;51.24
66522;SHT31;53349;53.538;8.584;2022-07-25T07:51:59;26.85;51.14
66522;SHT31;53349;53.538;8.584;2022-07-25T07:54:25;26.79;51.51
66522;SHT31;53349;53.538;8.584;2022-07-25T07:57:08;26.97;51.22
66522;SHT31;53349;53.538;8.584;2022-07-25T07:59:34;26.99;51.16
66522;SHT31;53349;53.538;8.584;2022-07-25T08:01:59;27.04;50.83
66522;SHT31;53349;53.538;8.584;2022-07-25T08:04:25;26.90;51.34
66522;SHT31;53349;53.538;8.584;2022-07-25T08:06:50;27.03;51.20
66522;SHT31;53349;53.538;8.584;2022-07-25T08:09:16;26.99;51.11
66522;SHT31;53349;53.538;8.584;2022-07-25T08:11:41;27.08;51.12
66522;SHT31;53349;53.538;8.584;2022-07-25T08:14:06;27.08;51.30
66522;SHT31;53349;53.538;8.584;2022-07-25T08:16:32;27.11;51.27
66522;SHT31;53349;53.538;8.584;2022-07-25T08:18:58;27.06;51.32
66522;SHT31;53349;53.538;8.584;2022-07-25T08:21:24;27.14;51.39
66522;SHT31;53349;53.538;8.584;2022-07-25T08:23:49;27.24;51.29
66522;SHT31;53349;53.538;8.584;2022-07-25T08:26:15;27.26;51.21
66522;SHT31;53349;53.538;8.584;2022-07-25T08:28:41;27.44;51.24
66522;SHT31;53349;53.538;8.584;2022-07-25T08:31:06;27.67;50.95
66522;SHT31;53349;53.538;8.584;2022-07-25T08:33:32;27.88;50.24
66522;SHT31;53349;53.538;8.584;2022-07-25T08:35:58;27.88;50.00
66522;SHT31;53349;53.538;8.584;2022-07-25T08:38:25;28.02;49.56
66522;SHT31;53349;53.538;8.584;2022-07-25T08:40:52;28.33;49.29
66522;SHT31;53349;53.538;8.584;2022-07-25T08:43:18;28.61;48.54
66522;SHT31;53349;53.538;8.584;2022-07-25T08:45:44;28.63;47.83
66522;SHT31;53349;53.538;8.584;2022-07-25T08:48:10;28.93;47.56
66522;SHT31;53349;53.538;8.584;2022-07-25T08:50:37;29.18;46.93
66522;SHT31;53349;53.538;8.584;2022-07-25T08:53:03;29.35;45.96
66522;SHT31;53349;53.538;8.584;2022-07-25T08:55:29;29.41;46.22
66522;SHT31;53349;53.538;8.584;2022-07-25T08:57:54;29.59;46.06
66522;SHT31;53349;53.538;8.584;2022-07-25T09:00:23;29.85;45.66
66522;SHT31;53349;53.538;8.584;2022-07-25T09:02:58;30.21;45.48
66522;SHT31;53349;53.538;8.584;2022-07-25T09:05:25;30.47;44.92
66522;SHT31;53349;53.538;8.584;2022-07-25T09:07:52;30.75;44.94
66522;SHT31;53349;53.538;8.584;2022-07-25T09:10:27;30.81;43.53
66522;SHT31;53349;53.538;8.584;2022-07-25T09:13:01;30.61;43.96
66522;SHT31;53349;53.538;8.584;2022-07-25T09:15:36;30.37;46.48
66522;SHT31;53349;53.538;8.584;2022-07-25T09:18:07;30.12;47.13
66522;SHT31;53349;53.538;8.584;2022-07-25T09:20:48;29.89;48.03
66522;SHT31;53349;53.538;8.584;2022-07-25T09:23:35;29.80;46.79
66522;SHT31;53349;53.538;8.584;2022-07-25T09:26:08;29.90;47.96
66522;SHT31;53349;53.538;8.584;2022-07-25T09:31:06;29.72;48.47
66522;SHT31;53349;53.538;8.584;2022-07-25T09:33:42;29.67;48.61
66522;SHT31;53349;53.538;8.584;2022-07-25T09:36:09;29.42;49.27
66522;SHT31;53349;53.538;8.584;2022-07-25T09:38:36;29.27;48.32
66522;SHT31;53349;53.538;8.584;2022-07-25T09:41:02;29.44;47.71
66522;SHT31;53349;53.538;8.584;2022-07-25T09:43:39;29.55;47.44
66522;SHT31;53349;53.538;8.584;2022-07-25T09:46:05;29.51;47.47
66522;SHT31;53349;53.538;8.584;2022-07-25T09:48:31;29.31;49.39
66522;SHT31;53349;53.538;8.584;2022-07-25T09:50:57;29.24;48.30
66522;SHT31;53349;53.538;8.584;2022-07-25T09:53:23;29.29;50.30
66522;SHT31;53349;53.538;8.584;2022-07-25T09:55:49;29.27;48.11
66522;SHT31;53349;53.538;8.584;2022-07-25T09:58:14;29.25;50.52
66522;SHT31;53349;53.538;8.584;2022-07-25T10:00:41;29.05;51.56
66522;SHT31;53349;53.538;8.584;2022-07-25T10:03:31;29.49;48.08
66522;SHT31;53349;53.538;8.584;2022-07-25T10:08:45;30.31;45.49
66522;SHT31;53349;53.538;8.584;2022-07-25T10:11:22;30.43;45.55
66522;SHT31;53349;53.538;8.584;2022-07-25T10:13:48;30.47;45.56
66522;SHT31;53349;53.538;8.584;2022-07-25T10:16:24;30.55;45.25
66522;SHT31;53349;53.538;8.584;2022-07-25T10:18:55;30.57;44.69
66522;SHT31;53349;53.538;8.584;2022-07-25T10:21:22;30.53;44.96
66522;SHT31;53349;53.538;8.584;2022-07-25T10:24:06;30.47;45.23
66522;SHT31;53349;53.538;8.584;2022-07-25T10:26:33;30.53;45.72
66522;SHT31;53349;53.538;8.584;2022-07-25T10:28:59;30.54;45.82
66522;SHT31;53349;53.538;8.584;2022-07-25T10:31:34;30.48;45.67
66522;SHT31;53349;53.538;8.584;2022-07-25T10:34:03;30.34;46.49
66522;SHT31;53349;53.538;8.584;2022-07-25T10:36:51;30.14;46.72
66522;SHT31;53349;53.538;8.584;2022-07-25T10:39:20;29.99;47.21
66522;SHT31;53349;53.538;8.584;2022-07-25T10:41:56;29.86;47.19
66522;SHT31;53349;53.538;8.584;2022-07-25T10:44:26;29.75;46.76
66522;SHT31;53349;53.538;8.584;2022-07-25T10:47:13;29.72;46.86
66522;SHT31;53349;53.538;8.584;2022-07-25T10:49:41;29.69;47.59
66522;SHT31;53349;53.538;8.584;2022-07-25T10:52:07;29.66;47.60
66522;SHT31;53349;53.538;8.584;2022-07-25T10:54:38;29.58;47.66
66522;SHT31;53349;53.538;8.584;2022-07-25T10:57:05;29.62;48.17
66522;SHT31;53349;53.538;8.584;2022-07-25T10:59:36;29.67;47.96
66522;SHT31;53349;53.538;8.584;2022-07-25T11:02:07;29.73;48.54
66522;SHT31;53349;53.538;8.584;2022-07-25T11:04:35;29.69;48.14
66522;SHT31;53349;53.538;8.584;2022-07-25T11:07:08;29.67;48.65
66522;SHT31;53349;53.538;8.584;2022-07-25T11:09:34;29.69;48.30
66522;SHT31;53349;53.538;8.584;2022-07-25T11:12:00;29.63;48.69
66522;SHT31;53349;53.538;8.584;2022-07-25T11:14:33;29.54;48.73
66522;SHT31;53349;53.538;8.584;2022-07-25T11:19:37;29.51;48.36
66522;SHT31;53349;53.538;8.584;2022-07-25T11:22:02;29.45;49.22
66522;SHT31;53349;53.538;8.584;2022-07-25T11:26:59;29.54;51.00
66522;SHT31;53349;53.538;8.584;2022-07-25T11:29:25;29.52;50.27
66522;SHT31;53349;53.538;8.584;2022-07-25T11:32:00;29.42;50.85
66522;SHT31;53349;53.538;8.584;2022-07-25T11:34:31;29.35;50.58
66522;SHT31;53349;53.538;8.584;2022-07-25T11:36:59;29.48;50.09
66522;SHT31;53349;53.538;8.584;2022-07-25T11:39:27;29.55;50.20
66522;SHT31;53349;53.538;8.584;2022-07-25T11:42:03;29.66;50.02
66522;SHT31;53349;53.538;8.584;2022-07-25T11:44:43;29.58;49.82
66522;SHT31;53349;53.538;8.584;2022-07-25T11:47:25;29.54;50.42
66522;SHT31;53349;53.538;8.584;2022-07-25T11:49:51;29.42;50.83
66522;SHT31;53349;53.538;8.584;2022-07-25T11:55:04;29.24;51.12
66522;SHT31;53349;53.538;8.584;2022-07-25T11:57:34;29.21;51.49
66522;SHT31;53349;53.538;8.584;2022-07-25T12:00:03;29.18;52.21
66522;SHT31;53349;53.538;8.584;2022-07-25T12:02:32;29.08;52.04
66522;SHT31;53349;53.538;8.584;2022-07-25T12:05:01;29.00;51.78
66522;SHT31;53349;53.538;8.584;2022-07-25T12:07:44;28.97;51.06
66522;SHT31;53349;53.538;8.584;2022-07-25T12:12:55;28.77;51.55
66522;SHT31;53349;53.538;8.584;2022-07-25T12:15:26;28.78;52.58
66522;SHT31;53349;53.538;8.584;2022-07-25T12:17:54;28.74;52.95
66522;SHT31;53349;53.538;8.584;2022-07-25T12:20:23;28.76;53.50
66522;SHT31;53349;53.538;8.584;2022-07-25T12:22:52;28.73;55.23
66522;SHT31;53349;53.538;8.584;2022-07-25T12:25:17;28.71;55.57
66522;SHT31;53349;53.538;8.584;2022-07-25T12:27:43;28.66;55.20
66522;SHT31;53349;53.538;8.584;2022-07-25T12:30:10;28.52;55.43
66522;SHT31;53349;53.538;8.584;2022-07-25T12:32:36;28.53;55.07
66522;SHT31;53349;53.538;8.584;2022-07-25T12:35:03;28.47;55.13
66522;SHT31;53349;53.538;8.584;2022-07-25T12:37:29;28.42;55.36
66522;SHT31;53349;53.538;8.584;2022-07-25T12:39:55;28.43;55.01
66522;SHT31;53349;53.538;8.584;2022-07-25T12:42:21;28.42;54.89
66522;SHT31;53349;53.538;8.584;2022-07-25T12:44:46;28.37;55.65
66522;SHT31;53349;53.538;8.584;2022-07-25T12:47:13;28.37;56.27
66522;SHT31;53349;53.538;8.584;2022-07-25T12:49:39;28.32;56.66
66522;SHT31;53349;53.538;8.584;2022-07-25T12:52:05;28.29;56.65
66522;SHT31;53349;53.538;8.584;2022-07-25T12:54:30;28.27;57.28
66522;SHT31;53349;53.538;8.584;2022-07-25T12:56:56;28.12;58.70
66522;SHT31;53349;53.538;8.584;2022-07-25T12:59:22;27.92;60.00
66522;SHT31;53349;53.538;8.584;2022-07-25T13:01:47;27.88;60.65
66522;SHT31;53349;53.538;8.584;2022-07-25T13:04:13;27.72;60.73
66522;SHT31;53349;53.538;8.584;2022-07-25T13:06:38;27.59;55.57
66522;SHT31;53349;53.538;8.584;2022-07-25T13:09:04;27.40;52.33
66522;SHT31;53349;53.538;8.584;2022-07-25T13:11:30;27.27;52.59
66522;SHT31;53349;53.538;8.584;2022-07-25T13:13:58;27.03;53.80
66522;SHT31;53349;53.538;8.584;2022-07-25T13:16:24;26.92;54.80
66522;SHT31;53349;53.538;8.584;2022-07-25T13:18:49;26.76;58.53
66522;SHT31;53349;53.538;8.584;2022-07-25T13:21:15;26.62;61.30
66522;SHT31;53349;53.538;8.584;2022-07-25T13:23:40;26.24;61.70
66522;SHT31;53349;53.538;8.584;2022-07-25T13:26:07;26.00;62.40
66522;SHT31;53349;53.538;8.584;2022-07-25T13:28:32;25.73;63.15
66522;SHT31;53349;53.538;8.584;2022-07-25T13:30:58;25.51;62.43
66522;SHT31;53349;53.538;8.584;2022-07-25T13:33:26;25.42;63.36
66522;SHT31;53349;53.538;8.584;2022-07-25T13:35:52;25.37;62.76
66522;SHT31;53349;53.538;8.584;2022-07-25T13:38:17;25.27;62.64
66522;SHT31;53349;53.538;8.584;2022-07-25T13:40:43;25.18;65.27
66522;SHT31;53349;53.538;8.584;2022-07-25T13:43:09;25.06;65.69
66522;SHT31;53349;53.538;8.584;2022-07-25T13:45:35;24.88;65.65
66522;SHT31;53349;53.538;8.584;2022-07-25T13:48:02;24.87;67.64
66522;SHT31;53349;53.538;8.584;2022-07-25T13:50:28;24.84;68.83
66522;SHT31;53349;53.538;8.584;2022-07-25T13:52:54;24.85;69.21
66522;SHT31;53349;53.538;8.584;2022-07-25T13:55:22;24.75;70.71
66522;SHT31;53349;53.538;8.584;2022-07-25T13:57:47;24.85;71.13
66522;SHT31;53349;53.538;8.584;2022-07-25T14:00:13;24.85;71.44
66522;SHT31;53349;53.538;8.584;2022-07-25T14:02:39;24.84;71.46
66522;SHT31;53349;53.538;8.584;2022-07-25T14:05:05;24.95;71.51
66522;SHT31;53349;53.538;8.584;2022-07-25T14:07:30;25.05;69.24
66522;SHT31;53349;53.538;8.584;2022-07-25T14:09:56;25.15;68.91
66522;SHT31;53349;53.538;8.584;2022-07-25T14:12:21;25.32;68.96
66522;SHT31;53349;53.538;8.584;2022-07-25T14:14:47;25.40;67.94
66522;SHT31;53349;53.538;8.584;2022-07-25T14:17:12;25.47;67.53
66522;SHT31;53349;53.538;8.584;2022-07-25T14:19:39;25.60;65.33
66522;SHT31;53349;53.538;8.584;2022-07-25T14:22:05;25.67;65.18
66522;SHT31;53349;53.538;8.584;2022-07-25T14:24:30;25.77;64.94
66522;SHT31;53349;53.538;8.584;2022-07-25T14:26:57;25.73;68.17
66522;SHT31;53349;53.538;8.584;2022-07-25T14:29:22;25.78;65.87
66522;SHT31;53349;53.538;8.584;2022-07-25T14:31:48;25.80;65.32
66522;SHT31;53349;53.538;8.584;2022-07-25T14:34:14;25.80;65.27
66522;SHT31;53349;53.538;8.584;2022-07-25T14:36:40;25.87;66.51
66522;SHT31;53349;53.538;8.584;2022-07-25T14:39:06;25.81;65.26
66522;SHT31;53349;53.538;8.584;2022-07-25T14:41:32;25.83;67.13
66522;SHT31;53349;53.538;8.584;2022-07-25T14:43:58;25.87;66.04
66522;SHT31;53349;53.538;8.584;2022-07-25T14:46:24;25.90;64.99
66522;SHT31;53349;53.538;8.584;2022-07-25T14:48:49;25.84;63.05
66522;SHT31;53349;53.538;8.584;2022-07-25T14:51:16;25.83;63.64
66522;SHT31;53349;53.538;8.584;2022-07-25T14:53:42;25.81;63.81
66522;SHT31;53349;53.538;8.584;2022-07-25T14:56:08;25.78;63.46
66522;SHT31;53349;53.538;8.584;2022-07-25T14:58:34;25.76;63.51
66522;SHT31;53349;53.538;8.584;2022-07-25T15:01:00;25.76;63.22
66522;SHT31;53349;53.538;8.584;2022-07-25T15:03:26;25.76;63.38
66522;SHT31;53349;53.538;8.584;2022-07-25T15:05:51;25.74;63.81
66522;SHT31;53349;53.538;8.584;2022-07-25T15:08:17;25.70;64.49
66522;SHT31;53349;53.538;8.584;2022-07-25T15:10:42;25.66;64.86
66522;SHT31;53349;53.538;8.584;2022-07-25T15:13:08;25.59;64.97
66522;SHT31;53349;53.538;8.584;2022-07-25T15:15:33;25.40;65.94
66522;SHT31;53349;53.538;8.584;2022-07-25T15:18:00;25.39;65.51
66522;SHT31;53349;53.538;8.584;2022-07-25T15:20:26;25.33;66.61
66522;SHT31;53349;53.538;8.584;2022-07-25T15:22:51;25.23;67.20
66522;SHT31;53349;53.538;8.584;2022-07-25T15:25:17;25.15;66.65
66522;SHT31;53349;53.538;8.584;2022-07-25T15:27:42;25.14;66.42
66522;SHT31;53349;53.538;8.584;2022-07-25T15:30:08;25.06;66.13
66522;SHT31;53349;53.538;8.584;2022-07-25T15:32:34;25.02;65.54
66522;SHT31;53349;53.538;8.584;2022-07-25T15:34:59;25.05;65.36
66522;SHT31;53349;53.538;8.584;2022-07-25T15:37:25;25.08;64.89
66522;SHT31;53349;53.538;8.584;2022-07-25T15:39:50;25.14;64.75
66522;SHT31;53349;53.538;8.584;2022-07-25T15:42:19;25.11;64.63
66522;SHT31;53349;53.538;8.584;2022-07-25T15:44:44;25.11;63.93